Time;durP1;ratioP1;P1;durP2;ratioP2;P2;SDS_P1;SDS_P2;PMS_P1;PMS_P2;Temp;Humidity;BMP_temperature;BMP_pressure;BME280_temperature;BME280_humidity;BME280_pressure;Samples;Min_cycle;Max_cycle;Signal;HPM_P1;HPM_P2
2022/05/04 00:02:17;;;;;;;1.65;1.13;;;9.40;99.90;;;;;;5060128;28;20040;-80
2022/05/04 00:04:43;;;;;;;2.53;1.13;;;9.30;99.90;;;;;;5060038;28;20044;-80
2022/05/04 00:07:08;;;;;;;1.83;1.73;;;9.30;99.90;;;;;;5059863;28;20045;-81
2022/05/04 00:09:34;;;;;;;6.07;1.52;;;9.30;99.90;;;;;;5059777;28;20258;-80
2022/05/04 00:12:00;;;;;;;2.83;0.80;;;9.30;99.90;;;;;;5058484;28;20045;-80
2022/05/04 00:14:25;;;;;;;0.40;0.40;;;9.30;99.90;;;;;;5042151;28;20047;-80
2022/05/04 00:16:52;;;;;;;3.85;1.52;;;9.30;99.90;;;;;;5058946;28;20072;-80
2022/05/04 00:19:18;;;;;;;1.40;1.10;;;9.30;99.90;;;;;;5059077;28;20049;-80
2022/05/04 00:21:44;;;;;;;1.05;0.50;;;9.30;99.90;;;;;;5058849;28;20123;-80
2022/05/04 00:24:09;;;;;;;1.10;1.10;;;9.30;99.90;;;;;;5058196;28;20097;-81
2022/05/04 00:26:35;;;;;;;4.82;1.85;;;9.30;99.90;;;;;;5058534;28;20411;-81
2022/05/04 00:29:01;;;;;;;1.33;1.13;;;9.30;99.90;;;;;;5058651;28;20491;-81
2022/05/04 00:31:26;;;;;;;3.33;1.00;;;9.30;99.90;;;;;;5059210;28;20101;-81
2022/05/04 00:33:52;;;;;;;2.38;1.05;;;9.20;99.90;;;;;;5059035;28;20045;-79
2022/05/04 00:36:17;;;;;;;1.25;1.13;;;9.20;99.90;;;;;;5040328;28;20496;-80
2022/05/04 00:38:43;;;;;;;2.10;0.82;;;9.20;99.90;;;;;;5059309;28;20045;-81
2022/05/04 00:41:09;;;;;;;8.25;1.80;;;9.20;99.90;;;;;;5039852;28;20059;-80
2022/05/04 00:43:34;;;;;;;1.38;0.80;;;9.20;99.90;;;;;;5058111;28;20092;-81
2022/05/04 00:46:00;;;;;;;0.95;0.95;;;9.20;99.90;;;;;;5047890;28;20102;-80
2022/05/04 00:48:25;;;;;;;1.73;1.05;;;9.20;99.90;;;;;;5078790;28;20312;-80
2022/05/04 00:50:52;;;;;;;2.78;1.13;;;9.20;99.90;;;;;;5060753;28;20129;-80
2022/05/04 00:53:19;;;;;;;1.55;1.45;;;9.20;99.90;;;;;;5078866;28;20071;-80
2022/05/04 00:55:46;;;;;;;1.10;0.90;;;9.20;99.90;;;;;;5078737;28;20051;-80
2022/05/04 01:00:59;;;;;;;0.87;0.87;;;9.20;99.90;;;;;;5049938;22;1047652;-80
2022/05/04 01:03:25;;;;;;;5.68;1.13;;;9.20;99.90;;;;;;5039636;28;20490;-80
2022/05/04 01:05:50;;;;;;;4.55;1.63;;;9.20;99.90;;;;;;5038378;28;20060;-80
2022/05/04 01:08:17;;;;;;;0.60;0.60;;;9.20;99.90;;;;;;5036861;28;20063;-80
2022/05/04 01:10:42;;;;;;;1.35;1.23;;;9.20;99.90;;;;;;5039627;28;20046;-80
2022/05/04 01:13:08;;;;;;;1.60;1.20;;;9.20;99.90;;;;;;5037758;28;20121;-80
2022/05/04 01:15:34;;;;;;;3.13;1.63;;;9.20;99.90;;;;;;5038424;28;20430;-80
2022/05/04 01:17:59;;;;;;;9.02;1.02;;;9.20;99.90;;;;;;5039678;28;20037;-80
2022/05/04 01:20:26;;;;;;;0.65;0.65;;;9.20;99.90;;;;;;5037401;28;20110;-80
2022/05/04 01:22:52;;;;;;;4.57;0.93;;;9.20;99.90;;;;;;5039876;28;20128;-80
2022/05/04 01:25:18;;;;;;;10.85;1.67;;;9.10;99.90;;;;;;5037299;28;20131;-80
2022/05/04 01:27:43;;;;;;;4.18;1.70;;;9.10;99.90;;;;;;5037143;28;20044;-80
2022/05/04 01:30:11;;;;;;;2.25;1.42;;;9.20;99.90;;;;;;5037563;28;20045;-80
2022/05/04 01:32:36;;;;;;;8.00;1.40;;;9.10;99.90;;;;;;5040489;28;20037;-80
2022/05/04 01:35:02;;;;;;;4.50;2.55;;;9.10;99.90;;;;;;5042209;28;20446;-80
2022/05/04 01:37:28;;;;;;;1.27;1.17;;;9.20;99.90;;;;;;5043444;28;20051;-80
2022/05/04 01:39:53;;;;;;;4.22;1.25;;;9.10;99.90;;;;;;5043163;28;20048;-80
2022/05/04 01:42:23;;;;;;;2.33;0.93;;;9.10;99.90;;;;;;5042216;28;20044;-80
2022/05/04 01:44:49;;;;;;;0.73;0.73;;;9.10;99.90;;;;;;5042768;28;20475;-80
2022/05/04 01:47:15;;;;;;;4.65;1.35;;;9.20;99.90;;;;;;5059636;28;20047;-80
2022/05/04 01:49:41;;;;;;;1.15;0.90;;;9.10;99.90;;;;;;5061337;28;20051;-80
2022/05/04 01:52:07;;;;;;;0.90;0.82;;;9.10;99.90;;;;;;5062989;28;20041;-80
2022/05/04 01:54:33;;;;;;;3.00;0.60;;;9.10;99.90;;;;;;5062438;28;20383;-80
2022/05/04 01:56:58;;;;;;;1.00;0.80;;;9.10;99.90;;;;;;5062078;28;20120;-80
2022/05/04 01:59:24;;;;;;;2.40;1.13;;;9.10;99.90;;;;;;5062876;28;20506;-80
2022/05/04 02:01:49;;;;;;;0.45;0.45;;;9.10;99.90;;;;;;5062407;28;20128;-80
2022/05/04 02:04:15;;;;;;;7.28;1.90;;;9.10;99.90;;;;;;5062821;28;20115;-80
2022/05/04 02:06:41;;;;;;;0.98;0.77;;;9.10;99.90;;;;;;5062528;28;20054;-80
2022/05/04 02:09:07;;;;;;;3.42;1.35;;;9.10;99.90;;;;;;5061659;28;20052;-81
2022/05/04 02:11:33;;;;;;;7.38;0.80;;;9.10;99.90;;;;;;5062623;28;20052;-80
2022/05/04 02:13:59;;;;;;;0.73;0.73;;;9.10;99.90;;;;;;5062840;28;20040;-80
2022/05/04 02:16:25;;;;;;;1.85;0.98;;;9.00;99.90;;;;;;5044178;28;20041;-80
2022/05/04 02:18:51;;;;;;;0.73;0.73;;;9.00;99.90;;;;;;5062408;28;20048;-80
2022/05/04 02:21:17;;;;;;;1.00;1.00;;;9.00;99.90;;;;;;5061979;28;20048;-80
2022/05/04 02:23:43;;;;;;;1.30;1.20;;;9.00;99.90;;;;;;5062798;28;20048;-80
2022/05/04 02:26:08;;;;;;;6.60;1.02;;;9.00;99.90;;;;;;5059728;28;20056;-80
2022/05/04 02:28:34;;;;;;;0.98;0.82;;;9.00;99.90;;;;;;5061275;28;20094;-80
2022/05/04 02:30:59;;;;;;;3.47;1.15;;;9.00;99.90;;;;;;5062496;28;20033;-80
2022/05/04 02:33:25;;;;;;;3.92;1.23;;;9.00;99.90;;;;;;5062442;28;20479;-80
2022/05/04 02:38:35;;;;;;;1.30;1.20;;;9.00;99.90;;;;;;5061858;28;20131;-80
2022/05/04 02:41:01;;;;;;;0.57;0.57;;;9.00;99.90;;;;;;5060595;28;20135;-81
2022/05/04 02:43:28;;;;;;;1.35;0.80;;;9.00;99.90;;;;;;5061010;28;20037;-80
2022/05/04 02:45:54;;;;;;;0.95;0.95;;;9.00;99.90;;;;;;5056248;28;20044;-80
2022/05/04 02:48:20;;;;;;;2.10;1.55;;;9.00;99.90;;;;;;5042095;28;20071;-80
2022/05/04 02:50:45;;;;;;;4.03;1.38;;;9.00;99.90;;;;;;5041785;28;20077;-80
2022/05/04 02:53:11;;;;;;;3.95;1.60;;;9.00;99.90;;;;;;5041040;28;20465;-79
2022/05/04 02:55:36;;;;;;;1.50;1.40;;;9.00;99.90;;;;;;5040891;28;20128;-80
2022/05/04 02:58:02;;;;;;;4.93;1.92;;;9.00;99.90;;;;;;5038791;28;20411;-81
2022/05/04 03:00:28;;;;;;;1.75;1.20;;;9.00;99.90;;;;;;5040750;28;20044;-80
2022/05/04 03:02:54;;;;;;;2.55;0.98;;;9.00;99.90;;;;;;5041589;28;20384;-80
2022/05/04 03:05:21;;;;;;;3.13;1.10;;;9.00;99.90;;;;;;5039807;28;20048;-81
2022/05/04 03:07:46;;;;;;;4.18;1.52;;;8.90;99.90;;;;;;5042112;28;20387;-80
2022/05/04 03:10:13;;;;;;;2.05;1.52;;;9.00;99.90;;;;;;5041023;28;20048;-80
2022/05/04 03:12:40;;;;;;;1.35;1.05;;;8.90;99.90;;;;;;5040809;28;20124;-80
2022/05/04 03:15:06;;;;;;;1.85;1.38;;;9.00;99.90;;;;;;5041022;28;20052;-80
2022/05/04 03:17:32;;;;;;;3.20;1.45;;;9.00;99.90;;;;;;5040951;28;20037;-81
2022/05/04 03:20:00;;;;;;;3.70;1.52;;;9.00;99.90;;;;;;5042148;28;20086;-80
2022/05/04 03:22:26;;;;;;;2.72;1.17;;;9.00;99.90;;;;;;5041295;28;20083;-80
2022/05/04 03:24:53;;;;;;;11.88;1.85;;;9.00;99.90;;;;;;5041665;28;20080;-80
2022/05/04 03:27:19;;;;;;;1.67;1.40;;;8.90;99.90;;;;;;5039882;28;20094;-80
2022/05/04 03:29:44;;;;;;;6.63;2.22;;;8.90;99.90;;;;;;5041123;28;20040;-80
2022/05/04 03:32:10;;;;;;;4.88;1.40;;;8.90;99.90;;;;;;5040788;28;20033;-80
2022/05/04 03:34:36;;;;;;;0.82;0.77;;;8.90;99.90;;;;;;5039450;28;20098;-80
2022/05/04 03:37:02;;;;;;;0.73;0.73;;;8.90;99.90;;;;;;5040906;28;20457;-81
2022/05/04 03:39:29;;;;;;;2.88;1.05;;;8.90;99.90;;;;;;5041293;28;20091;-80
2022/05/04 03:41:55;;;;;;;1.85;0.85;;;8.90;99.90;;;;;;5039890;28;20493;-80
2022/05/04 03:44:21;;;;;;;1.20;1.15;;;8.80;99.90;;;;;;5039588;28;20407;-80
2022/05/04 03:46:48;;;;;;;1.10;0.73;;;8.90;99.90;;;;;;5053250;28;20056;-80
2022/05/04 03:49:15;;;;;;;3.25;1.50;;;8.90;99.90;;;;;;5059308;28;20086;-80
2022/05/04 03:51:41;;;;;;;7.85;1.63;;;8.90;99.90;;;;;;5059396;28;20079;-80
2022/05/04 03:54:07;;;;;;;1.45;1.13;;;8.90;99.90;;;;;;5060754;28;20040;-81
2022/05/04 03:56:33;;;;;;;13.00;1.75;;;8.90;99.90;;;;;;5058735;28;20190;-80
2022/05/04 03:58:59;;;;;;;0.57;0.57;;;8.80;99.90;;;;;;5060872;28;20040;-80
2022/05/04 04:01:24;;;;;;;1.25;0.75;;;8.90;99.90;;;;;;5060024;28;20466;-79
2022/05/04 04:03:50;;;;;;;2.03;1.20;;;8.80;99.90;;;;;;5058864;28;20303;-80
2022/05/04 04:06:16;;;;;;;9.20;1.27;;;8.90;99.90;;;;;;5060144;28;20399;-80
2022/05/04 04:08:41;;;;;;;1.35;1.25;;;8.80;99.90;;;;;;5060039;28;20456;-80
2022/05/04 04:11:07;;;;;;;2.90;1.52;;;8.80;99.90;;;;;;5059130;28;20039;-80
2022/05/04 04:13:32;;;;;;;1.63;1.02;;;8.90;99.90;;;;;;5060624;28;20387;-80
2022/05/04 04:15:58;;;;;;;1.75;1.08;;;8.80;99.90;;;;;;5060194;28;20080;-79
2022/05/04 04:18:26;;;;;;;2.63;0.95;;;8.80;99.90;;;;;;5059731;28;20075;-80
2022/05/04 04:23:37;;;;;;;4.18;1.48;;;8.80;99.90;;;;;;5058477;28;20347;-80
2022/05/04 04:26:04;;;;;;;1.95;1.50;;;8.80;99.90;;;;;;5057690;28;20056;-80
2022/05/04 04:28:30;;;;;;;0.73;0.73;;;8.80;99.90;;;;;;5060187;28;20040;-80
2022/05/04 04:30:56;;;;;;;1.77;1.08;;;8.80;99.90;;;;;;5060136;28;20044;-80
2022/05/04 04:33:26;;;;;;;1.05;0.95;;;8.80;99.90;;;;;;5059619;28;20111;-80
2022/05/04 04:35:52;;;;;;;1.38;1.17;;;8.80;99.90;;;;;;5060082;28;20052;-80
2022/05/04 04:38:18;;;;;;;1.75;1.35;;;8.90;99.90;;;;;;5059359;28;20498;-80
2022/05/04 04:40:43;;;;;;;1.75;1.50;;;8.90;99.90;;;;;;5058936;28;20051;-80
2022/05/04 04:43:09;;;;;;;3.85;1.23;;;8.90;99.90;;;;;;5059551;28;20037;-80
2022/05/04 04:45:34;;;;;;;4.90;1.38;;;8.90;99.90;;;;;;5056539;28;20134;-80
2022/05/04 04:48:00;;;;;;;0.68;0.68;;;8.90;99.90;;;;;;5039901;28;20037;-80
2022/05/04 04:50:25;;;;;;;2.83;1.38;;;8.90;99.90;;;;;;5021933;28;20048;-80
2022/05/04 04:52:51;;;;;;;1.67;1.58;;;8.90;99.90;;;;;;5038625;28;20503;-80
2022/05/04 04:55:17;;;;;;;2.40;1.10;;;8.90;99.90;;;;;;5039707;28;20103;-80
2022/05/04 04:57:43;;;;;;;1.08;1.08;;;8.80;99.90;;;;;;5038636;28;20139;-80
2022/05/04 05:00:09;;;;;;;3.53;0.73;;;8.80;99.90;;;;;;5039598;28;20044;-80
2022/05/04 05:02:35;;;;;;;1.27;0.98;;;8.90;99.90;;;;;;5039747;28;20052;-80
2022/05/04 05:05:02;;;;;;;1.25;1.00;;;8.90;99.90;;;;;;5039299;28;20465;-80
2022/05/04 05:07:28;;;;;;;0.90;0.82;;;8.90;99.90;;;;;;5039844;28;20060;-80
2022/05/04 05:09:54;;;;;;;1.33;1.13;;;8.90;99.90;;;;;;5039584;28;20060;-80
2022/05/04 05:12:21;;;;;;;1.60;1.08;;;8.90;99.90;;;;;;5038530;28;20360;-80
2022/05/04 05:17:32;;;;;;;3.70;1.35;;;8.90;99.90;;;;;;5037904;28;20264;-80
2022/05/04 05:19:58;;;;;;;3.40;1.05;;;8.90;99.90;;;;;;5039707;28;20072;-80
2022/05/04 05:22:23;;;;;;;1.33;1.23;;;8.90;99.90;;;;;;5039308;28;20033;-80
2022/05/04 05:24:49;;;;;;;3.80;1.55;;;8.90;99.90;;;;;;5039712;28;20072;-80
2022/05/04 05:27:15;;;;;;;1.27;0.82;;;8.90;99.90;;;;;;5038610;28;20124;-80
2022/05/04 05:29:40;;;;;;;1.95;1.23;;;8.90;99.90;;;;;;5038958;28;20037;-80
2022/05/04 05:32:06;;;;;;;2.90;1.45;;;8.90;99.90;;;;;;5038784;28;20044;-80
2022/05/04 05:34:33;;;;;;;2.08;1.90;;;8.90;99.90;;;;;;5037658;28;20033;-80
2022/05/04 05:37:00;;;;;;;2.60;1.48;;;8.90;99.90;;;;;;5038233;28;20076;-80
2022/05/04 05:39:25;;;;;;;1.23;1.02;;;8.90;99.90;;;;;;5039252;28;20536;-79
2022/05/04 05:41:51;;;;;;;2.92;1.67;;;8.90;99.90;;;;;;5038382;28;20574;-80
2022/05/04 05:44:17;;;;;;;1.95;1.13;;;8.90;99.90;;;;;;5038795;28;20529;-80
2022/05/04 05:46:43;;;;;;;15.10;1.23;;;8.90;99.90;;;;;;5051234;28;20261;-80
2022/05/04 05:49:08;;;;;;;2.45;1.60;;;8.90;99.90;;;;;;5057508;28;20048;-80
2022/05/04 05:51:34;;;;;;;0.75;0.50;;;8.90;99.90;;;;;;5058980;28;20041;-80
2022/05/04 05:53:59;;;;;;;1.30;1.20;;;8.90;99.90;;;;;;5057763;28;20044;-80
2022/05/04 05:56:25;;;;;;;2.67;1.33;;;9.00;99.90;;;;;;5058118;28;20051;-80
2022/05/04 05:58:50;;;;;;;1.40;1.00;;;9.00;99.90;;;;;;5058752;28;20044;-80
2022/05/04 06:01:16;;;;;;;7.60;1.45;;;9.00;99.90;;;;;;5058297;28;20045;-80
2022/05/04 06:03:42;;;;;;;8.88;1.92;;;9.00;99.90;;;;;;5059294;28;20045;-81
2022/05/04 06:06:08;;;;;;;0.70;0.70;;;9.00;99.90;;;;;;5058683;28;20036;-80
2022/05/04 06:08:35;;;;;;;3.03;2.08;;;9.10;99.90;;;;;;5058472;28;20060;-80
2022/05/04 06:11:00;;;;;;;1.83;1.73;;;9.10;99.90;;;;;;5057125;28;20059;-79
2022/05/04 06:13:26;;;;;;;0.60;0.60;;;9.10;99.90;;;;;;5059163;28;20037;-80
2022/05/04 06:15:51;;;;;;;0.95;0.75;;;9.10;99.90;;;;;;5059074;28;20044;-80
2022/05/04 06:18:17;;;;;;;1.63;1.35;;;9.10;99.90;;;;;;5059278;28;20128;-80
2022/05/04 06:20:43;;;;;;;1.50;1.17;;;9.10;99.90;;;;;;5060930;28;20120;-80
2022/05/04 06:23:09;;;;;;;10.13;2.25;;;9.10;99.90;;;;;;5061218;28;20053;-80
2022/05/04 06:25:35;;;;;;;2.05;1.85;;;9.20;99.90;;;;;;5061590;28;20045;-80
2022/05/04 06:28:01;;;;;;;1.88;1.30;;;9.20;99.90;;;;;;5062056;28;20051;-81
2022/05/04 06:35:55;;;;;;;1.80;1.65;;;9.20;99.90;;;;;;5062385;28;20162;-80
2022/05/04 06:38:21;;;;;;;1.52;1.33;;;9.20;99.90;;;;;;5060453;28;20449;-80
2022/05/04 06:40:46;;;;;;;3.58;1.13;;;9.30;99.90;;;;;;5059919;28;20534;-80
2022/05/04 06:43:12;;;;;;;2.40;1.15;;;9.20;99.90;;;;;;5062378;28;20045;-80
2022/05/04 06:45:37;;;;;;;7.95;1.40;;;9.30;99.90;;;;;;5058133;28;20572;-80
2022/05/04 06:48:04;;;;;;;3.13;1.52;;;9.30;99.90;;;;;;5041634;28;20041;-80
2022/05/04 06:50:30;;;;;;;1.83;1.67;;;9.40;99.90;;;;;;5042800;28;20284;-80
2022/05/04 06:52:56;;;;;;;2.45;2.25;;;9.40;99.90;;;;;;5041513;28;20499;-80
2022/05/04 06:55:21;;;;;;;2.78;1.55;;;9.40;99.90;;;;;;5041119;28;20045;-81
2022/05/04 06:57:47;;;;;;;2.13;0.70;;;9.40;99.90;;;;;;5041584;28;20537;-81
2022/05/04 07:00:13;;;;;;;4.72;3.05;;;9.40;99.90;;;;;;5041557;28;20505;-81
2022/05/04 07:02:39;;;;;;;1.27;1.25;;;9.40;99.90;;;;;;5041682;28;20118;-80
2022/05/04 07:05:05;;;;;;;3.72;1.20;;;9.40;99.90;;;;;;5041042;28;20662;-81
2022/05/04 07:07:31;;;;;;;4.07;1.38;;;9.40;99.90;;;;;;5041351;28;20072;-80
2022/05/04 07:09:58;;;;;;;3.42;1.65;;;9.50;99.90;;;;;;5041726;28;20090;-80
2022/05/04 07:12:24;;;;;;;0.95;0.95;;;9.50;99.90;;;;;;5040597;28;20045;-80
2022/05/04 07:14:53;;;;;;;14.75;1.65;;;9.50;99.90;;;;;;5041660;28;20111;-80
2022/05/04 07:17:19;;;;;;;4.25;1.13;;;9.50;99.90;;;;;;5040684;28;20120;-80
2022/05/04 07:19:46;;;;;;;4.03;1.08;;;9.60;99.90;;;;;;5041686;28;20669;-80
2022/05/04 07:22:12;;;;;;;3.33;1.20;;;9.60;99.90;;;;;;5040134;28;20052;-84
2022/05/04 07:24:38;;;;;;;1.50;0.98;;;9.60;99.90;;;;;;5040470;28;20094;-83
2022/05/04 07:27:04;;;;;;;2.10;1.38;;;9.60;99.90;;;;;;5039992;28;20033;-80
2022/05/04 07:29:29;;;;;;;3.63;1.30;;;9.70;99.90;;;;;;5039334;28;20041;-81
2022/05/04 07:31:55;;;;;;;1.50;1.40;;;9.70;99.90;;;;;;5040807;28;20052;-80
2022/05/04 07:34:21;;;;;;;2.47;0.95;;;9.70;99.90;;;;;;5040986;28;20051;-80
2022/05/04 07:36:48;;;;;;;0.88;0.88;;;9.70;99.90;;;;;;5023115;28;20475;-81
2022/05/04 07:44:42;;;;;;;16.58;1.85;;;9.80;99.90;;;;;;5039726;28;20557;-81
2022/05/04 07:47:07;;;;;;;2.38;1.02;;;9.90;99.90;;;;;;5055705;28;20265;-80
2022/05/04 07:49:33;;;;;;;3.50;1.92;;;9.90;99.90;;;;;;5060953;28;20040;-80
2022/05/04 07:51:58;;;;;;;3.17;2.05;;;10.00;99.90;;;;;;5061066;28;20040;-80
2022/05/04 07:54:24;;;;;;;1.30;1.27;;;10.00;99.90;;;;;;5059952;28;20063;-80
2022/05/04 07:56:52;;;;;;;2.20;1.02;;;10.00;99.90;;;;;;5059788;28;20045;-81
2022/05/04 07:59:18;;;;;;;1.50;1.40;;;10.00;99.90;;;;;;5059919;28;20043;-81
2022/05/04 08:04:27;;;;;;;5.38;1.85;;;10.00;99.90;;;;;;5059879;28;20048;-81
2022/05/04 08:06:53;;;;;;;3.25;1.00;;;10.00;99.90;;;;;;5060234;28;20090;-81
2022/05/04 08:09:18;;;;;;;0.90;0.90;;;10.10;99.90;;;;;;5059588;28;20048;-81
2022/05/04 08:11:44;;;;;;;1.17;1.17;;;10.10;99.90;;;;;;5058182;28;20132;-80
2022/05/04 08:14:12;;;;;;;2.42;1.75;;;10.10;99.90;;;;;;5059260;28;20127;-81
2022/05/04 08:16:39;;;;;;;4.95;2.28;;;10.20;99.90;;;;;;5059368;28;20044;-81
2022/05/04 08:19:06;;;;;;;1.10;1.10;;;10.20;99.90;;;;;;5059646;28;20036;-81
2022/05/04 08:21:32;;;;;;;2.25;1.83;;;10.20;99.90;;;;;;5058857;28;20048;-81
2022/05/04 08:23:58;;;;;;;1.02;0.98;;;10.30;99.90;;;;;;5060263;28;20068;-80
2022/05/04 08:26:24;;;;;;;1.55;1.45;;;10.30;99.90;;;;;;5058711;28;20036;-81
2022/05/04 08:28:51;;;;;;;2.28;1.00;;;10.30;99.90;;;;;;5058817;28;20048;-80
2022/05/04 08:31:17;;;;;;;4.53;1.73;;;10.30;99.90;;;;;;5059497;28;20059;-80
2022/05/04 08:33:43;;;;;;;3.08;2.28;;;10.30;99.90;;;;;;5058739;28;20102;-81
2022/05/04 08:36:08;;;;;;;1.30;1.25;;;10.40;99.90;;;;;;5057998;28;20306;-80
2022/05/04 08:38:34;;;;;;;4.97;1.65;;;10.40;99.90;;;;;;5058568;28;20087;-81
2022/05/04 08:41:02;;;;;;;2.15;1.50;;;10.40;99.90;;;;;;5058919;28;20083;-80
2022/05/04 08:43:31;;;;;;;0.93;0.90;;;10.40;99.90;;;;;;5060088;28;20127;-81
2022/05/04 08:46:00;;;;;;;1.55;1.00;;;10.40;99.90;;;;;;5052799;28;20041;-80
2022/05/04 08:48:26;;;;;;;0.90;0.90;;;10.50;99.90;;;;;;5038685;28;20131;-81
2022/05/04 08:50:53;;;;;;;6.85;1.45;;;10.50;99.90;;;;;;5040070;28;20048;-80
2022/05/04 08:53:19;;;;;;;1.30;1.20;;;10.60;99.90;;;;;;5039262;28;20049;-81
2022/05/04 08:55:46;;;;;;;6.65;1.60;;;10.70;99.90;;;;;;5039351;28;20445;-81
2022/05/04 08:58:12;;;;;;;3.25;1.40;;;10.70;99.90;;;;;;5038901;28;20446;-81
2022/05/04 09:00:38;;;;;;;3.75;1.23;;;10.80;99.90;;;;;;5039780;28;20037;-81
2022/05/04 09:03:03;;;;;;;2.25;1.40;;;10.80;99.90;;;;;;5039327;28;20596;-81
2022/05/04 09:05:29;;;;;;;28.73;2.35;;;10.80;99.90;;;;;;5039311;28;20489;-81
2022/05/04 09:07:57;;;;;;;4.10;1.88;;;10.80;99.90;;;;;;5039785;28;20437;-81
2022/05/04 09:10:31;;;;;;;2.65;1.10;;;10.90;99.90;;;;;;5037809;28;20076;-81
2022/05/04 09:12:56;;;;;;;2.88;1.25;;;10.90;99.90;;;;;;5038480;28;20044;-81
2022/05/04 09:15:33;;;;;;;5.57;1.85;;;10.90;99.90;;;;;;5039015;28;20051;-81
2022/05/04 09:18:05;;;;;;;2.63;1.30;;;10.90;99.90;;;;;;5038319;28;20329;-81
2022/05/04 09:20:45;;;;;;;2.75;1.55;;;10.90;99.90;;;;;;5039095;28;20039;-81
2022/05/04 09:23:30;;;;;;;1.40;1.30;;;10.90;99.90;;;;;;5038869;28;20283;-81
2022/05/04 09:26:05;;;;;;;0.93;0.93;;;10.90;99.90;;;;;;5037641;28;20085;-81
2022/05/04 09:28:32;;;;;;;1.70;0.90;;;10.90;99.90;;;;;;5037592;28;20033;-81
2022/05/04 09:31:06;;;;;;;1.00;0.80;;;10.90;99.90;;;;;;5038690;28;20510;-82
2022/05/04 09:33:34;;;;;;;3.90;1.25;;;10.90;99.90;;;;;;5039077;28;20151;-82
2022/05/04 09:36:03;;;;;;;5.45;2.30;;;10.80;99.90;;;;;;5037690;28;20606;-80
2022/05/04 09:46:48;;;;;;;1.30;1.20;;;10.80;99.90;;;;;;5052353;28;20406;-81
2022/05/04 09:49:19;;;;;;;5.40;1.33;;;10.90;99.90;;;;;;5058183;28;20238;-82
2022/05/04 09:51:51;;;;;;;1.02;1.02;;;10.90;99.90;;;;;;5059142;28;20048;-81
2022/05/04 09:54:18;;;;;;;;;;;11.00;99.90;;;;;;5043467;28;20052;-82
2022/05/04 09:57:05;;;;;;;5.57;3.20;;;11.10;99.70;;;;;;5061666;28;19932;-81
2022/05/04 09:59:32;;;;;;;2.03;1.52;;;11.10;99.90;;;;;;5060861;28;20044;-78
2022/05/04 10:01:59;;;;;;;3.00;1.50;;;11.20;99.90;;;;;;5062943;28;20404;-81
2022/05/04 10:04:26;;;;;;;2.35;1.80;;;11.10;99.90;;;;;;5062512;28;20048;-81
2022/05/04 10:06:54;;;;;;;1.48;1.40;;;11.20;99.90;;;;;;5062937;28;20024;-81
2022/05/04 10:09:23;;;;;;;1.55;1.38;;;11.10;99.90;;;;;;5062066;28;20037;-81
2022/05/04 10:11:58;;;;;;;6.25;2.20;;;11.20;99.90;;;;;;5061492;28;20479;-81
2022/05/04 10:14:26;;;;;;;1.63;1.05;;;11.20;99.90;;;;;;5061200;28;20045;-80
2022/05/04 10:17:13;;;;;;;4.00;1.52;;;11.30;99.90;;;;;;5062294;28;20530;-81
2022/05/04 10:19:57;;;;;;;1.17;1.17;;;11.40;99.90;;;;;;5062671;28;20044;-81
2022/05/04 10:22:40;;;;;;;2.05;1.48;;;11.40;99.90;;;;;;5061976;28;20086;-81
2022/05/04 10:25:07;;;;;;;4.47;1.85;;;11.40;99.90;;;;;;5060163;28;20131;-81
2022/05/04 10:27:41;;;;;;;1.60;1.42;;;11.40;99.90;;;;;;5062391;28;21042;-80
2022/05/04 10:32:56;;;;;;;2.65;1.60;;;11.40;99.90;;;;;;5061999;28;20037;-81
2022/05/04 10:35:43;;;;;;;5.93;2.05;;;11.40;99.90;;;;;;5062306;28;20242;-81
2022/05/04 10:38:12;;;;;;;5.20;1.27;;;11.50;99.90;;;;;;5061660;28;20235;-81
2022/05/04 10:40:37;;;;;;;1.92;1.65;;;11.50;99.90;;;;;;5061472;28;20032;-81
2022/05/04 10:43:08;;;;;;;1.85;1.58;;;11.50;99.90;;;;;;5061631;28;20063;-82
2022/05/04 10:45:39;;;;;;;2.40;1.63;;;11.60;99.90;;;;;;5058294;28;20033;-81
2022/05/04 10:48:20;;;;;;;1.55;1.45;;;11.60;99.90;;;;;;5040253;28;20053;-82
2022/05/04 10:50:57;;;;;;;6.53;1.42;;;11.60;99.90;;;;;;5042040;28;20380;-81
2022/05/04 10:53:27;;;;;;;1.55;1.45;;;11.60;99.90;;;;;;5040521;28;20037;-81
2022/05/04 10:56:03;;;;;;;1.73;1.63;;;11.50;99.90;;;;;;5040993;28;20333;-81
2022/05/04 10:58:39;;;;;;;1.00;1.00;;;11.50;99.90;;;;;;5041929;28;20044;-81
2022/05/04 11:01:15;;;;;;;1.65;1.17;;;11.50;99.90;;;;;;5040449;28;20407;-81
2022/05/04 11:03:55;;;;;;;1.52;1.27;;;11.50;99.90;;;;;;5041944;28;20491;-81
2022/05/04 11:06:29;;;;;;;1.10;1.10;;;11.50;99.90;;;;;;5041782;28;20041;-81
2022/05/04 11:08:56;;;;;;;4.03;2.38;;;11.60;99.90;;;;;;5040234;28;20038;-81
2022/05/04 11:11:23;;;;;;;5.65;1.75;;;11.60;99.90;;;;;;5038781;28;20250;-81
2022/05/04 11:13:50;;;;;;;1.67;1.58;;;11.60;99.90;;;;;;5041418;28;20040;-81
2022/05/04 11:16:16;;;;;;;1.50;1.40;;;11.60;99.90;;;;;;5039675;28;20351;-81
2022/05/04 11:18:42;;;;;;;2.72;1.52;;;11.70;99.90;;;;;;5041468;28;20065;-81
2022/05/04 11:21:12;;;;;;;1.80;1.48;;;11.70;99.90;;;;;;5040045;28;20041;-81
2022/05/04 11:23:38;;;;;;;4.20;1.95;;;11.70;99.90;;;;;;5040979;28;20435;-81
2022/05/04 11:26:05;;;;;;;0.80;0.80;;;11.70;99.90;;;;;;5038925;28;20052;-81
2022/05/04 11:28:30;;;;;;;2.45;1.92;;;11.70;99.90;;;;;;5039717;28;20045;-81
2022/05/04 11:30:56;;;;;;;4.57;2.03;;;11.80;99.90;;;;;;5041754;28;20079;-81
2022/05/04 11:33:21;;;;;;;1.23;1.13;;;11.80;99.90;;;;;;5040693;28;20396;-81
2022/05/04 11:35:54;;;;;;;1.15;1.15;;;11.80;99.90;;;;;;5041026;28;20041;-81
2022/05/04 11:38:21;;;;;;;2.08;1.90;;;11.80;99.90;;;;;;5040272;28;20037;-81
2022/05/04 11:40:49;;;;;;;2.15;1.35;;;11.90;99.90;;;;;;5040514;28;20073;-81
2022/05/04 11:43:47;;;;;;;1.60;1.50;;;11.80;99.90;;;;;;5040419;28;20123;-81
2022/05/04 11:46:13;;;;;;;1.83;1.73;;;11.80;99.10;;;;;;5003768;28;20127;-81
2022/05/04 11:48:48;;;;;;;1.40;1.30;;;11.80;99.90;;;;;;5060277;28;20131;-81
2022/05/04 11:51:16;;;;;;;3.92;1.70;;;11.90;99.90;;;;;;5060362;28;20441;-81
2022/05/04 11:53:42;;;;;;;1.50;1.30;;;11.90;99.90;;;;;;5061071;28;20052;-82
2022/05/04 11:56:08;;;;;;;4.63;1.88;;;12.00;99.90;;;;;;5059186;28;20036;-81
2022/05/04 11:58:37;;;;;;;2.58;2.38;;;12.00;99.90;;;;;;5060291;28;20071;-81
2022/05/04 12:01:06;;;;;;;2.97;2.13;;;12.00;99.90;;;;;;5059670;28;20240;-81
2022/05/04 12:03:35;;;;;;;3.17;2.45;;;12.10;99.90;;;;;;5059559;28;20048;-81
2022/05/04 12:06:05;;;;;;;3.00;2.30;;;12.10;99.90;;;;;;5060060;28;20154;-82
2022/05/04 12:08:32;;;;;;;3.53;1.80;;;12.10;99.90;;;;;;5060514;28;20567;-80
2022/05/04 12:10:59;;;;;;;6.00;2.13;;;12.10;99.90;;;;;;5059341;28;20247;-82
2022/05/04 12:13:26;;;;;;;4.78;2.30;;;12.10;99.90;;;;;;5060318;28;20040;-81
2022/05/04 12:15:54;;;;;;;2.30;2.10;;;12.20;99.90;;;;;;5059243;28;20052;-83
2022/05/04 12:18:20;;;;;;;1.55;1.38;;;12.20;99.90;;;;;;5058884;28;20053;-82
2022/05/04 12:20:47;;;;;;;1.80;1.50;;;12.20;99.90;;;;;;5059901;28;20032;-81
2022/05/04 12:23:13;;;;;;;11.30;1.98;;;12.20;99.90;;;;;;5059758;28;20080;-81
2022/05/04 12:25:41;;;;;;;2.92;2.22;;;12.20;99.90;;;;;;5059466;28;20580;-81
2022/05/04 12:28:06;;;;;;;1.98;1.85;;;12.30;99.90;;;;;;5058030;28;20090;-82
2022/05/04 12:33:22;;;;;;;2.38;2.13;;;12.30;99.90;;;;;;5059158;28;20510;-82
2022/05/04 12:35:48;;;;;;;1.50;1.42;;;12.30;99.90;;;;;;5060174;28;20040;-82
2022/05/04 12:38:18;;;;;;;2.08;1.55;;;12.30;99.90;;;;;;5059765;28;20044;-81
2022/05/04 12:40:43;;;;;;;8.43;2.20;;;12.30;99.90;;;;;;5058068;28;20468;-81
2022/05/04 12:43:09;;;;;;;4.95;1.85;;;12.40;99.90;;;;;;5041297;28;20132;-82
2022/05/04 12:45:37;;;;;;;1.98;1.73;;;12.40;99.90;;;;;;5056677;28;20434;-81
2022/05/04 12:48:09;;;;;;;4.15;2.03;;;12.40;99.90;;;;;;5038115;28;20380;-81
2022/05/04 12:50:35;;;;;;;1.90;1.50;;;12.40;99.90;;;;;;5039885;28;20032;-81
2022/05/04 12:53:01;;;;;;;3.10;2.17;;;12.40;99.90;;;;;;5039460;28;20041;-81
2022/05/04 12:58:13;;;;;;;4.72;2.08;;;12.50;99.90;;;;;;5039576;28;20487;-81
2022/05/04 13:00:39;;;;;;;4.82;1.92;;;12.60;99.90;;;;;;5039171;28;20037;-82
2022/05/04 13:03:08;;;;;;;2.58;2.28;;;12.60;99.90;;;;;;5039427;28;20061;-81
2022/05/04 13:05:33;;;;;;;2.13;1.42;;;12.50;99.90;;;;;;5039425;28;20228;-82
2022/05/04 13:07:59;;;;;;;5.75;2.25;;;12.50;99.90;;;;;;5038564;28;20475;-81
2022/05/04 13:10:25;;;;;;;12.10;2.35;;;12.50;99.90;;;;;;5038238;28;20094;-81
2022/05/04 13:12:51;;;;;;;2.45;2.25;;;12.50;99.90;;;;;;5039578;28;20422;-81
2022/05/04 13:15:16;;;;;;;3.38;1.83;;;12.50;99.90;;;;;;5039023;28;20052;-80
2022/05/04 13:17:42;;;;;;;1.50;1.17;;;12.50;99.90;;;;;;5039077;28;20461;-81
2022/05/04 13:20:09;;;;;;;5.68;2.08;;;12.60;99.90;;;;;;5037844;28;20083;-81
2022/05/04 13:22:35;;;;;;;12.10;2.63;;;12.60;99.90;;;;;;5039003;28;20124;-81
2022/05/04 13:25:01;;;;;;;7.13;2.13;;;12.60;99.90;;;;;;5038207;28;20037;-81
2022/05/04 13:27:27;;;;;;;1.92;1.63;;;12.60;99.90;;;;;;5039089;28;20048;-81
2022/05/04 13:29:52;;;;;;;2.25;1.92;;;12.60;99.90;;;;;;5043077;28;20519;-81
2022/05/04 13:32:18;;;;;;;5.43;2.10;;;12.70;99.90;;;;;;5042061;28;20055;-81
2022/05/04 13:34:43;;;;;;;8.30;3.20;;;12.70;99.90;;;;;;5043143;28;20282;-81